Time;durP1;ratioP1;P1;durP2;ratioP2;P2;SDS_P1;SDS_P2;PMS_P1;PMS_P2;Temp;Humidity;BMP_temperature;BMP_pressure;BME280_temperature;BME280_humidity;BME280_pressure;Samples;Min_cycle;Max_cycle;Signal;HPM_P1;HPM_P2
2023/06/04 00:00:08;;;;;;;4.20;1.30;;;;;;;;;;4961491;29;20487;-74
2023/06/04 00:02:34;;;;;;;1.87;1.73;;;;;;;;;;4961595;29;20386;-73
2023/06/04 00:05:00;;;;;;;2.30;1.40;;;;;;;;;;4961244;29;20958;-74
2023/06/04 00:07:26;;;;;;;3.10;1.37;;;;;;;;;;4961780;29;20757;-74
2023/06/04 00:09:53;;;;;;;1.27;1.10;;;;;;;;;;4961638;29;20420;-74
2023/06/04 00:12:19;;;;;;;1.63;1.17;;;;;;;;;;4961698;29;20371;-73
2023/06/04 00:14:45;;;;;;;1.70;1.50;;;;;;;;;;4961309;29;20897;-73
2023/06/04 00:17:11;;;;;;;2.33;1.60;;;;;;;;;;4961253;29;20430;-73
2023/06/04 00:19:40;;;;;;;1.20;1.10;;;;;;;;;;4961110;29;20782;-74
2023/06/04 00:22:07;;;;;;;2.47;1.30;;;;;;;;;;4961643;29;20770;-73
2023/06/04 00:24:33;;;;;;;4.53;1.30;;;;;;;;;;4961494;29;20391;-73
2023/06/04 00:26:59;;;;;;;3.20;1.10;;;;;;;;;;4961607;29;20387;-74
2023/06/04 00:29:25;;;;;;;1.50;1.20;;;;;;;;;;4961744;29;20387;-73
2023/06/04 00:31:51;;;;;;;2.37;1.20;;;;;;;;;;4960477;29;20504;-73
2023/06/04 00:34:18;;;;;;;3.03;1.10;;;;;;;;;;4961286;29;20416;-73
2023/06/04 00:36:44;;;;;;;1.30;1.03;;;;;;;;;;4959842;28;20467;-73
2023/06/04 00:39:10;;;;;;;2.40;1.67;;;;;;;;;;4961477;29;20387;-73
2023/06/04 00:41:36;;;;;;;1.53;1.23;;;;;;;;;;4960465;29;20466;-73
2023/06/04 00:44:06;;;;;;;2.07;1.37;;;;;;;;;;4960957;29;20391;-73
2023/06/04 00:46:32;;;;;;;2.00;1.23;;;;;;;;;;4961086;29;20470;-73
2023/06/04 00:48:59;;;;;;;2.23;1.20;;;;;;;;;;4960930;29;20388;-73
2023/06/04 00:51:25;;;;;;;1.00;0.90;;;;;;;;;;4961072;28;20542;-73
2023/06/04 00:53:52;;;;;;;1.60;1.50;;;;;;;;;;4960897;29;20471;-73
2023/06/04 00:56:19;;;;;;;1.60;1.23;;;;;;;;;;4960804;29;20520;-73
2023/06/04 00:58:46;;;;;;;1.70;1.27;;;;;;;;;;4961099;29;20407;-73
2023/06/04 01:01:40;;;;;;;1.60;1.30;;;;;;;;;;4961510;29;20404;-73
2023/06/04 01:04:08;;;;;;;1.90;1.10;;;;;;;;;;4942613;29;20446;-73
2023/06/04 01:06:43;;;;;;;2.23;1.37;;;;;;;;;;4960860;29;20409;-73
2023/06/04 01:09:10;;;;;;;1.50;1.30;;;;;;;;;;4960835;29;20382;-73
2023/06/04 01:11:37;;;;;;;1.60;1.13;;;;;;;;;;4960228;29;20432;-73
2023/06/04 01:14:04;;;;;;;1.37;1.23;;;;;;;;;;4960494;29;20379;-73
2023/06/04 01:16:35;;;;;;;1.63;1.30;;;;;;;;;;4960890;29;20464;-73
2023/06/04 01:19:02;;;;;;;4.40;1.40;;;;;;;;;;4960661;29;20417;-73
2023/06/04 01:21:30;;;;;;;2.50;1.53;;;;;;;;;;4960694;29;20487;-73
2023/06/04 01:23:59;;;;;;;2.07;1.03;;;;;;;;;;4960798;29;20388;-73
2023/06/04 01:26:26;;;;;;;1.40;0.93;;;;;;;;;;4960811;29;20395;-73
2023/06/04 01:28:52;;;;;;;1.93;1.00;;;;;;;;;;4960250;29;20405;-73
2023/06/04 01:31:22;;;;;;;4.67;1.83;;;;;;;;;;4960730;29;20383;-73
2023/06/04 01:33:48;;;;;;;1.33;1.00;;;;;;;;;;4960331;29;20880;-73
2023/06/04 01:36:15;;;;;;;1.47;1.30;;;;;;;;;;4959847;29;20449;-73
2023/06/04 01:38:41;;;;;;;2.13;1.30;;;;;;;;;;4960124;29;20421;-75
2023/06/04 01:41:07;;;;;;;1.97;1.37;;;;;;;;;;4959813;29;20491;-73
2023/06/04 01:43:35;;;;;;;3.17;1.60;;;;;;;;;;4959675;29;20413;-73
2023/06/04 01:46:01;;;;;;;4.73;1.57;;;;;;;;;;4960448;28;20507;-73
2023/06/04 01:48:27;;;;;;;3.77;1.40;;;;;;;;;;4960316;29;20383;-73
2023/06/04 01:50:53;;;;;;;2.57;1.97;;;;;;;;;;4959852;28;20562;-73
2023/06/04 01:53:19;;;;;;;2.37;1.90;;;;;;;;;;4960168;29;20449;-73
2023/06/04 01:55:45;;;;;;;1.97;1.40;;;;;;;;;;4960195;29;20405;-74
2023/06/04 01:58:11;;;;;;;1.50;1.33;;;;;;;;;;4960372;29;20450;-73
2023/06/04 02:00:37;;;;;;;1.60;1.40;;;;;;;;;;4960560;29;20504;-73
2023/06/04 02:03:04;;;;;;;2.67;1.70;;;;;;;;;;4960141;29;20428;-73
2023/06/04 02:05:30;;;;;;;2.83;1.57;;;;;;;;;;4959634;29;20416;-73
2023/06/04 02:07:57;;;;;;;1.30;1.10;;;;;;;;;;4959756;29;20440;-73
2023/06/04 02:10:23;;;;;;;2.53;1.20;;;;;;;;;;4959945;29;20436;-73
2023/06/04 02:12:59;;;;;;;2.20;1.37;;;;;;;;;;4959856;29;20424;-73
2023/06/04 02:15:26;;;;;;;2.87;1.40;;;;;;;;;;4960436;29;20495;-73
2023/06/04 02:17:58;;;;;;;1.60;1.47;;;;;;;;;;4959996;29;20460;-73
2023/06/04 02:20:24;;;;;;;2.40;1.03;;;;;;;;;;4960170;29;20405;-73
2023/06/04 02:22:50;;;;;;;3.40;1.70;;;;;;;;;;4960074;29;20455;-73
2023/06/04 02:25:16;;;;;;;1.20;1.00;;;;;;;;;;4959950;29;20409;-73
2023/06/04 02:27:42;;;;;;;3.20;1.80;;;;;;;;;;4959836;29;20897;-73
2023/06/04 02:30:08;;;;;;;6.13;2.10;;;;;;;;;;4959854;29;20439;-73
2023/06/04 02:32:35;;;;;;;2.83;1.80;;;;;;;;;;4960062;29;20391;-73
2023/06/04 02:35:02;;;;;;;1.60;1.30;;;;;;;;;;4959506;29;20402;-73
2023/06/04 02:37:28;;;;;;;2.33;1.50;;;;;;;;;;4959514;29;20515;-73
2023/06/04 02:39:54;;;;;;;4.35;1.70;;;;;;;;;;4959112;29;20440;-73
2023/06/04 02:42:20;;;;;;;2.07;1.40;;;;;;;;;;4959810;29;20215;-73
2023/06/04 02:44:46;;;;;;;4.17;1.57;;;;;;;;;;4959664;29;20390;-75
2023/06/04 02:47:12;;;;;;;3.10;1.87;;;;;;;;;;4959382;29;20751;-73
2023/06/04 02:49:38;;;;;;;2.20;1.60;;;;;;;;;;4957686;29;20399;-73
2023/06/04 02:52:04;;;;;;;2.88;1.65;;;;;;;;;;4959012;29;20409;-73
2023/06/04 02:54:30;;;;;;;2.03;1.60;;;;;;;;;;4958727;29;20599;-73
2023/06/04 02:56:56;;;;;;;3.85;1.60;;;;;;;;;;4958609;29;20482;-73
2023/06/04 02:59:22;;;;;;;3.00;1.60;;;;;;;;;;4958227;28;20188;-74
2023/06/04 03:01:48;;;;;;;1.45;1.20;;;;;;;;;;4958897;29;20669;-73
2023/06/04 03:04:15;;;;;;;3.30;1.50;;;;;;;;;;4959044;29;20173;-73
2023/06/04 03:06:44;;;;;;;2.08;1.50;;;;;;;;;;4959308;29;20405;-73
2023/06/04 03:09:10;;;;;;;2.20;1.58;;;;;;;;;;4958695;29;20200;-73
2023/06/04 03:11:36;;;;;;;1.67;1.20;;;;;;;;;;4958475;29;20181;-73
2023/06/04 03:14:02;;;;;;;1.42;1.10;;;;;;;;;;4958125;29;20181;-73
2023/06/04 03:16:28;;;;;;;3.65;1.58;;;;;;;;;;4959277;29;20200;-73
2023/06/04 03:18:55;;;;;;;2.20;1.55;;;;;;;;;;4959453;29;20177;-73
2023/06/04 03:21:21;;;;;;;1.90;1.33;;;;;;;;;;4959567;29;20181;-73
2023/06/04 03:23:47;;;;;;;1.95;1.75;;;;;;;;;;4959600;29;20224;-73
2023/06/04 03:26:13;;;;;;;5.03;1.83;;;;;;;;;;4959428;29;20263;-73
2023/06/04 03:28:40;;;;;;;3.08;1.65;;;;;;;;;;4959371;29;20178;-73
2023/06/04 03:31:06;;;;;;;3.45;1.60;;;;;;;;;;4959348;29;20208;-73
2023/06/04 03:33:32;;;;;;;1.77;1.60;;;;;;;;;;4958167;29;20187;-74
2023/06/04 03:35:58;;;;;;;1.83;1.50;;;;;;;;;;4957258;29;20188;-73
2023/06/04 03:38:24;;;;;;;1.92;1.63;;;;;;;;;;4959251;29;20196;-73
2023/06/04 03:40:52;;;;;;;1.40;1.30;;;;;;;;;;4958631;29;20181;-74
2023/06/04 03:43:18;;;;;;;2.30;1.80;;;;;;;;;;4958711;29;20197;-73
2023/06/04 03:45:44;;;;;;;2.42;2.10;;;;;;;;;;4959095;29;20392;-75
2023/06/04 03:48:10;;;;;;;2.17;1.45;;;;;;;;;;4959038;29;20173;-75
2023/06/04 03:50:37;;;;;;;4.15;1.80;;;;;;;;;;4959378;28;20770;-74
2023/06/04 03:53:06;;;;;;;1.45;1.35;;;;;;;;;;4958730;29;20224;-74
2023/06/04 03:55:32;;;;;;;1.98;1.77;;;;;;;;;;4958620;29;20223;-74
2023/06/04 03:57:58;;;;;;;2.65;1.50;;;;;;;;;;4958526;29;20205;-74
2023/06/04 04:00:24;;;;;;;3.17;1.60;;;;;;;;;;4959069;29;20184;-74
2023/06/04 04:02:50;;;;;;;2.60;1.80;;;;;;;;;;4959006;29;20618;-76
2023/06/04 04:05:16;;;;;;;2.53;1.55;;;;;;;;;;4959064;29;20169;-74
2023/06/04 04:07:42;;;;;;;4.00;1.90;;;;;;;;;;4959157;29;20181;-74
2023/06/04 04:10:09;;;;;;;3.05;2.08;;;;;;;;;;4960256;28;20192;-74
2023/06/04 04:12:35;;;;;;;2.25;2.05;;;;;;;;;;4962250;29;20208;-74
2023/06/04 04:15:02;;;;;;;1.70;1.60;;;;;;;;;;4963107;29;20192;-75
2023/06/04 04:17:28;;;;;;;3.28;1.77;;;;;;;;;;4962528;29;20243;-74
2023/06/04 04:19:54;;;;;;;3.30;2.45;;;;;;;;;;4961870;29;20177;-75
2023/06/04 04:22:20;;;;;;;4.05;2.17;;;;;;;;;;4962255;29;20279;-74
2023/06/04 04:24:46;;;;;;;2.83;1.50;;;;;;;;;;4945474;29;20650;-75
2023/06/04 04:27:12;;;;;;;3.53;1.92;;;;;;;;;;4961661;29;20196;-74
2023/06/04 04:29:38;;;;;;;2.60;1.83;;;;;;;;;;4962000;29;20181;-74
2023/06/04 04:32:10;;;;;;;2.53;2.03;;;;;;;;;;4962797;29;20383;-74
2023/06/04 04:34:37;;;;;;;2.47;1.80;;;;;;;;;;4962606;29;20248;-74
2023/06/04 04:37:03;;;;;;;2.58;2.00;;;;;;;;;;4962277;29;20236;-74
2023/06/04 04:39:29;;;;;;;4.25;1.70;;;;;;;;;;4962529;29;20169;-74
2023/06/04 04:41:56;;;;;;;2.60;1.65;;;;;;;;;;4962522;29;20261;-74
2023/06/04 04:44:22;;;;;;;2.40;1.60;;;;;;;;;;4962535;29;20173;-74
2023/06/04 04:46:50;;;;;;;3.25;2.13;;;;;;;;;;4961816;29;20189;-74
2023/06/04 04:49:16;;;;;;;1.60;1.50;;;;;;;;;;4961179;29;20542;-74
2023/06/04 04:51:42;;;;;;;4.20;2.37;;;;;;;;;;4962036;29;20311;-74
2023/06/04 04:54:08;;;;;;;3.70;2.20;;;;;;;;;;4961882;29;20755;-74
2023/06/04 04:56:35;;;;;;;3.00;1.67;;;;;;;;;;4962042;29;20220;-74
2023/06/04 04:59:01;;;;;;;3.38;1.83;;;;;;;;;;4961510;29;20177;-75
2023/06/04 05:01:27;;;;;;;2.17;1.60;;;;;;;;;;4961639;29;20176;-74
2023/06/04 05:03:53;;;;;;;2.83;2.10;;;;;;;;;;4961741;29;20894;-77
2023/06/04 05:06:20;;;;;;;2.30;1.60;;;;;;;;;;4962019;29;20196;-74
2023/06/04 05:08:46;;;;;;;2.47;1.90;;;;;;;;;;4962025;29;20184;-74
2023/06/04 05:11:12;;;;;;;3.47;1.90;;;;;;;;;;4961577;29;20416;-74
2023/06/04 05:13:38;;;;;;;4.00;2.70;;;;;;;;;;4961522;29;20637;-74
2023/06/04 05:16:06;;;;;;;2.47;2.05;;;;;;;;;;4961454;29;20415;-74
2023/06/04 05:18:33;;;;;;;4.07;2.00;;;;;;;;;;4961535;29;20589;-74
2023/06/04 05:21:00;;;;;;;7.75;2.08;;;;;;;;;;4959802;28;20438;-74
2023/06/04 05:23:30;;;;;;;5.13;2.33;;;;;;;;;;4961071;29;20189;-74
2023/06/04 05:25:56;;;;;;;3.03;1.93;;;;;;;;;;4961319;29;20191;-75
2023/06/04 05:28:24;;;;;;;4.07;2.53;;;;;;;;;;4961390;29;20504;-74
2023/06/04 05:30:51;;;;;;;2.70;2.23;;;;;;;;;;4961309;29;20777;-74
2023/06/04 05:33:18;;;;;;;5.30;2.30;;;;;;;;;;4960486;29;20444;-74
2023/06/04 05:35:51;;;;;;;3.50;2.20;;;;;;;;;;4961578;29;20443;-74
2023/06/04 05:38:25;;;;;;;5.27;1.93;;;;;;;;;;4961318;29;20267;-74
2023/06/04 05:40:52;;;;;;;8.20;2.33;;;;;;;;;;4961194;29;20492;-72
2023/06/04 05:43:18;;;;;;;4.03;1.90;;;;;;;;;;4961169;29;20430;-72
2023/06/04 05:45:45;;;;;;;2.77;1.97;;;;;;;;;;4961092;29;20472;-72
2023/06/04 05:48:11;;;;;;;3.60;2.40;;;;;;;;;;4960622;29;20412;-75
2023/06/04 05:50:37;;;;;;;3.50;2.10;;;;;;;;;;4944004;29;20438;-72
2023/06/04 05:53:03;;;;;;;2.90;2.20;;;;;;;;;;4960149;29;20920;-74
2023/06/04 05:55:29;;;;;;;3.70;2.17;;;;;;;;;;4960784;29;20398;-74
2023/06/04 05:57:55;;;;;;;3.50;1.80;;;;;;;;;;4960605;29;20819;-75
2023/06/04 06:00:22;;;;;;;2.03;1.80;;;;;;;;;;4959586;29;20409;-75
2023/06/04 06:02:50;;;;;;;2.93;1.80;;;;;;;;;;4959872;29;20384;-75
2023/06/04 06:05:16;;;;;;;3.67;1.97;;;;;;;;;;4959318;29;20382;-75
2023/06/04 06:07:43;;;;;;;5.10;1.80;;;;;;;;;;4960028;29;20390;-75
2023/06/04 06:10:09;;;;;;;14.50;2.80;;;;;;;;;;4959683;29;20913;-75
2023/06/04 06:12:35;;;;;;;5.20;2.17;;;;;;;;;;4951045;29;20417;-83
2023/06/04 06:15:01;;;;;;;9.13;2.57;;;;;;;;;;4938685;29;20440;-76
2023/06/04 06:17:28;;;;;;;2.73;1.77;;;;;;;;;;4940538;29;20985;-75
2023/06/04 06:19:55;;;;;;;3.20;2.47;;;;;;;;;;4940032;29;20419;-75
2023/06/04 06:22:21;;;;;;;2.07;1.50;;;;;;;;;;4939745;29;20404;-75
2023/06/04 06:24:50;;;;;;;3.60;2.00;;;;;;;;;;4940519;29;20416;-75
2023/06/04 06:27:17;;;;;;;2.07;1.63;;;;;;;;;;4940996;29;20450;-74
2023/06/04 06:29:43;;;;;;;3.47;2.10;;;;;;;;;;4939859;29;20400;-75
2023/06/04 06:32:09;;;;;;;3.50;1.73;;;;;;;;;;4940420;29;20455;-77
2023/06/04 06:34:35;;;;;;;2.73;2.10;;;;;;;;;;4940268;29;20402;-77
2023/06/04 06:37:01;;;;;;;2.40;1.73;;;;;;;;;;4940104;29;20436;-77
2023/06/04 06:39:27;;;;;;;5.33;2.00;;;;;;;;;;4939381;29;20417;-78
2023/06/04 06:41:53;;;;;;;3.00;1.70;;;;;;;;;;4940183;29;20721;-75
2023/06/04 06:44:19;;;;;;;1.87;1.77;;;;;;;;;;4939128;29;20391;-76
2023/06/04 06:46:45;;;;;;;2.17;1.97;;;;;;;;;;4939443;29;20410;-76
2023/06/04 06:49:11;;;;;;;3.57;1.80;;;;;;;;;;4939258;29;20395;-76
2023/06/04 06:51:37;;;;;;;2.73;1.93;;;;;;;;;;4938105;29;20444;-75
2023/06/04 06:54:03;;;;;;;3.80;2.13;;;;;;;;;;4939399;29;20778;-78
2023/06/04 06:56:30;;;;;;;2.50;1.60;;;;;;;;;;4939352;29;20472;-76
2023/06/04 06:58:56;;;;;;;4.77;1.80;;;;;;;;;;4939775;29;20388;-76
2023/06/04 07:01:22;;;;;;;3.03;1.90;;;;;;;;;;4939356;29;20388;-76
2023/06/04 07:03:48;;;;;;;2.27;1.50;;;;;;;;;;4939559;29;20402;-76
2023/06/04 07:06:14;;;;;;;3.90;2.03;;;;;;;;;;4939227;29;20377;-76
2023/06/04 07:08:42;;;;;;;2.77;1.80;;;;;;;;;;4939535;29;20407;-76
2023/06/04 07:11:11;;;;;;;4.60;2.07;;;;;;;;;;4938749;29;20432;-76
2023/06/04 07:13:37;;;;;;;1.90;1.67;;;;;;;;;;4939384;29;20420;-76
2023/06/04 07:16:03;;;;;;;2.00;1.57;;;;;;;;;;4939334;29;20416;-75
2023/06/04 07:18:29;;;;;;;3.70;1.77;;;;;;;;;;4939375;29;20642;-76
2023/06/04 07:20:55;;;;;;;3.77;2.20;;;;;;;;;;4939359;29;20405;-76
2023/06/04 07:23:21;;;;;;;2.47;2.00;;;;;;;;;;4938959;29;20413;-77
2023/06/04 07:25:47;;;;;;;2.03;1.73;;;;;;;;;;4939010;29;20414;-76
2023/06/04 07:28:13;;;;;;;3.60;1.90;;;;;;;;;;4938580;29;20413;-76
2023/06/04 07:30:40;;;;;;;2.30;2.10;;;;;;;;;;4939143;29;20839;-76
2023/06/04 07:33:06;;;;;;;6.70;2.10;;;;;;;;;;4938898;29;20779;-76
2023/06/04 07:35:32;;;;;;;3.50;2.17;;;;;;;;;;4939399;29;20386;-76
2023/06/04 07:37:58;;;;;;;3.40;2.10;;;;;;;;;;4938700;29;20477;-76
2023/06/04 07:40:24;;;;;;;6.90;2.40;;;;;;;;;;4938626;29;20976;-76
2023/06/04 07:42:50;;;;;;;2.63;2.10;;;;;;;;;;4938437;29;20508;-76
2023/06/04 07:45:16;;;;;;;5.37;1.67;;;;;;;;;;4940285;29;20758;-76
2023/06/04 07:47:43;;;;;;;3.87;2.03;;;;;;;;;;4943027;29;20384;-76
2023/06/04 07:50:09;;;;;;;3.77;2.10;;;;;;;;;;4942373;29;20567;-76
2023/06/04 07:52:36;;;;;;;5.77;2.40;;;;;;;;;;4942676;29;20506;-76
2023/06/04 07:55:03;;;;;;;3.27;1.83;;;;;;;;;;4942116;29;20405;-76
2023/06/04 07:57:29;;;;;;;4.93;2.00;;;;;;;;;;4941780;29;20456;-76
2023/06/04 07:59:56;;;;;;;4.53;1.90;;;;;;;;;;4942204;29;20477;-76
2023/06/04 08:02:23;;;;;;;6.40;2.00;;;;;;;;;;4942362;29;20421;-76
2023/06/04 08:04:49;;;;;;;2.33;1.67;;;;;;;;;;4942212;29;20409;-76
2023/06/04 08:07:15;;;;;;;3.37;1.90;;;;;;;;;;4940060;29;20425;-77
2023/06/04 08:09:43;;;;;;;2.53;1.80;;;;;;;;;;4941734;29;20767;-76
2023/06/04 08:12:09;;;;;;;3.20;2.10;;;;;;;;;;4941720;29;20766;-77
2023/06/04 08:14:35;;;;;;;2.07;1.63;;;;;;;;;;4941866;29;20464;-76
2023/06/04 08:17:02;;;;;;;4.00;1.73;;;;;;;;;;4941938;29;20866;-76
2023/06/04 08:19:28;;;;;;;2.47;1.80;;;;;;;;;;4941056;29;20421;-76
2023/06/04 08:21:53;;;;;;;8.30;1.60;;;;;;;;;;4941591;29;20433;-76
2023/06/04 08:24:19;;;;;;;4.07;1.40;;;;;;;;;;4941331;29;20417;-76
2023/06/04 08:26:47;;;;;;;2.30;1.70;;;;;;;;;;4941459;29;20421;-76
2023/06/04 08:29:13;;;;;;;1.23;1.13;;;;;;;;;;4924616;29;20516;-76
2023/06/04 08:31:39;;;;;;;1.97;1.40;;;;;;;;;;4941004;29;20420;-77
2023/06/04 08:34:06;;;;;;;2.57;1.60;;;;;;;;;;4941284;29;20771;-76
2023/06/04 08:36:32;;;;;;;1.87;1.67;;;;;;;;;;4940792;29;20469;-77
2023/06/04 08:38:58;;;;;;;2.13;1.60;;;;;;;;;;4940573;29;20421;-77
2023/06/04 08:41:28;;;;;;;2.20;1.43;;;;;;;;;;4940654;29;20421;-77
2023/06/04 08:43:57;;;;;;;2.67;1.50;;;;;;;;;;4940648;29;20418;-76
2023/06/04 08:46:24;;;;;;;2.43;1.60;;;;;;;;;;4940423;29;20425;-77
2023/06/04 08:48:50;;;;;;;3.30;1.50;;;;;;;;;;4940655;29;20758;-77
2023/06/04 08:51:17;;;;;;;3.20;1.50;;;;;;;;;;4939550;29;20463;-76
2023/06/04 08:53:47;;;;;;;3.70;1.37;;;;;;;;;;4940043;29;20473;-77
2023/06/04 08:56:13;;;;;;;2.60;1.50;;;;;;;;;;4939369;29;20423;-78
2023/06/04 08:58:40;;;;;;;4.00;1.90;;;;;;;;;;4940512;29;20801;-78
2023/06/04 09:01:07;;;;;;;8.03;1.70;;;;;;;;;;4940132;29;20446;-75
2023/06/04 09:03:35;;;;;;;2.10;1.70;;;;;;;;;;4939646;29;20512;-77
2023/06/04 09:06:02;;;;;;;4.20;1.77;;;;;;;;;;4939473;29;20413;-76
2023/06/04 09:08:31;;;;;;;5.00;1.80;;;;;;;;;;4939528;29;20472;-76
2023/06/04 09:10:58;;;;;;;4.50;1.83;;;;;;;;;;4940055;29;20505;-76
2023/06/04 09:13:28;;;;;;;6.77;1.63;;;;;;;;;;4940064;29;20409;-76
2023/06/04 09:16:04;;;;;;;5.30;1.93;;;;;;;;;;4939759;29;20401;-76
2023/06/04 09:18:30;;;;;;;3.30;1.67;;;;;;;;;;4939220;29;20463;-77
2023/06/04 09:21:03;;;;;;;3.87;1.60;;;;;;;;;;4939176;29;20778;-77
2023/06/04 09:23:30;;;;;;;3.00;1.57;;;;;;;;;;4938747;29;20977;-77
2023/06/04 09:25:56;;;;;;;2.90;1.63;;;;;;;;;;4938644;29;20414;-77
2023/06/04 09:28:22;;;;;;;3.93;1.53;;;;;;;;;;4938170;29;20753;-77
2023/06/04 09:30:52;;;;;;;2.20;2.00;;;;;;;;;;4938811;29;20461;-77
2023/06/04 09:33:18;;;;;;;2.43;1.90;;;;;;;;;;4938511;29;20461;-77
2023/06/04 09:35:53;;;;;;;1.53;1.40;;;;;;;;;;4938771;29;20417;-78
2023/06/04 09:38:19;;;;;;;3.50;1.90;;;;;;;;;;4938584;29;20475;-77
2023/06/04 09:40:45;;;;;;;3.73;1.97;;;;;;;;;;4938570;29;20516;-78
2023/06/04 09:43:11;;;;;;;2.00;1.70;;;;;;;;;;4937842;29;20453;-78
2023/06/04 09:45:37;;;;;;;3.03;1.90;;;;;;;;;;4937857;29;20449;-78
2023/06/04 09:48:04;;;;;;;2.70;1.93;;;;;;;;;;4937840;29;20445;-77
2023/06/04 09:50:36;;;;;;;2.50;1.33;;;;;;;;;;4937004;29;20477;-77
2023/06/04 09:53:13;;;;;;;3.93;1.90;;;;;;;;;;4939285;29;20414;-78
2023/06/04 09:55:38;;;;;;;2.23;1.30;;;;;;;;;;4937289;29;20416;-77
2023/06/04 09:58:05;;;;;;;1.57;1.40;;;;;;;;;;4937024;29;20457;-78
2023/06/04 10:00:31;;;;;;;6.87;1.30;;;;;;;;;;4936660;29;20444;-77
2023/06/04 10:03:01;;;;;;;5.30;1.60;;;;;;;;;;4936994;29;20421;-78
2023/06/04 10:05:29;;;;;;;3.50;1.70;;;;;;;;;;4936699;29;20485;-77
2023/06/04 10:07:57;;;;;;;5.73;1.50;;;;;;;;;;4936929;29;20849;-78
2023/06/04 10:10:25;;;;;;;1.83;1.40;;;;;;;;;;4937343;29;20524;-78
2023/06/04 10:13:02;;;;;;;3.00;1.50;;;;;;;;;;4936772;29;20401;-78
2023/06/04 10:15:29;;;;;;;2.10;1.50;;;;;;;;;;4936890;29;20413;-77
2023/06/04 10:17:55;;;;;;;1.43;1.23;;;;;;;;;;4936971;29;20930;-77
2023/06/04 10:20:22;;;;;;;1.93;1.50;;;;;;;;;;4936844;29;20414;-77
2023/06/04 10:22:48;;;;;;;2.90;1.30;;;;;;;;;;4936955;29;20417;-77
2023/06/04 10:25:14;;;;;;;2.70;1.50;;;;;;;;;;4936523;29;20833;-78
2023/06/04 10:27:40;;;;;;;3.00;1.80;;;;;;;;;;4936961;29;20406;-77
2023/06/04 10:30:07;;;;;;;4.03;1.80;;;;;;;;;;4936627;29;20755;-77
2023/06/04 10:32:34;;;;;;;3.10;1.37;;;;;;;;;;4936486;29;20425;-77
2023/06/04 10:35:04;;;;;;;1.80;1.63;;;;;;;;;;4936751;29;20490;-77
2023/06/04 10:37:30;;;;;;;1.93;1.30;;;;;;;;;;4936361;29;20882;-77
2023/06/04 10:39:57;;;;;;;3.23;1.30;;;;;;;;;;4936607;29;20414;-77
2023/06/04 10:42:24;;;;;;;1.87;1.40;;;;;;;;;;4936325;29;20787;-77
2023/06/04 10:44:54;;;;;;;2.93;1.73;;;;;;;;;;4919854;29;20422;-77
2023/06/04 10:47:21;;;;;;;3.10;1.30;;;;;;;;;;4935375;29;20953;-77
2023/06/04 10:49:47;;;;;;;2.60;1.50;;;;;;;;;;4936608;29;20829;-78
2023/06/04 10:52:13;;;;;;;2.80;1.77;;;;;;;;;;4936786;29;20402;-77
2023/06/04 10:54:40;;;;;;;2.37;1.80;;;;;;;;;;4935991;29;20417;-77
2023/06/04 10:57:12;;;;;;;2.70;1.53;;;;;;;;;;4936384;29;20501;-77
2023/06/04 10:59:38;;;;;;;2.83;1.70;;;;;;;;;;4936089;29;20457;-77
2023/06/04 11:02:08;;;;;;;1.77;1.30;;;;;;;;;;4936185;29;20801;-77
2023/06/04 11:04:34;;;;;;;3.83;2.20;;;;;;;;;;4935871;29;20778;-78
2023/06/04 11:07:08;;;;;;;1.60;1.30;;;;;;;;;;4936263;29;20417;-78
2023/06/04 11:09:34;;;;;;;1.50;1.40;;;;;;;;;;4935824;29;20808;-77
2023/06/04 11:12:01;;;;;;;3.23;1.83;;;;;;;;;;4936315;29;20414;-78
2023/06/04 11:14:27;;;;;;;1.93;1.67;;;;;;;;;;4935966;29;20777;-78
2023/06/04 11:16:53;;;;;;;1.50;1.40;;;;;;;;;;4935745;29;20964;-77
2023/06/04 11:19:20;;;;;;;2.53;1.63;;;;;;;;;;4935698;29;20778;-78
2023/06/04 11:21:46;;;;;;;2.00;1.60;;;;;;;;;;4938467;29;20988;-78
2023/06/04 11:24:15;;;;;;;2.50;1.40;;;;;;;;;;4939971;29;20417;-78
2023/06/04 11:26:41;;;;;;;1.43;1.27;;;;;;;;;;4939775;29;20419;-78
2023/06/04 11:29:11;;;;;;;2.20;1.63;;;;;;;;;;4939743;29;20417;-78
2023/06/04 11:31:49;;;;;;;4.80;1.53;;;;;;;;;;4939387;29;20825;-77
2023/06/04 11:34:28;;;;;;;4.30;1.80;;;;;;;;;;4938167;29;20791;-78
2023/06/04 11:36:55;;;;;;;1.70;1.40;;;;;;;;;;4939311;29;20468;-78
2023/06/04 11:39:21;;;;;;;5.03;1.87;;;;;;;;;;4939201;29;20405;-78
2023/06/04 11:41:47;;;;;;;2.33;1.53;;;;;;;;;;4939274;29;20773;-78
2023/06/04 11:44:14;;;;;;;2.87;1.60;;;;;;;;;;4939474;29;20413;-78
2023/06/04 11:46:41;;;;;;;5.60;1.80;;;;;;;;;;4939360;29;20469;-78
2023/06/04 11:49:07;;;;;;;1.70;1.37;;;;;;;;;;4939560;29;20427;-78
2023/06/04 11:51:33;;;;;;;3.40;1.50;;;;;;;;;;4939248;29;20560;-79
2023/06/04 11:53:59;;;;;;;5.73;1.57;;;;;;;;;;4939582;29;20460;-78
2023/06/04 11:56:26;;;;;;;2.50;1.40;;;;;;;;;;4938952;29;20779;-78
2023/06/04 11:58:53;;;;;;;2.27;1.50;;;;;;;;;;4939404;29;20425;-78
2023/06/04 12:01:19;;;;;;;3.20;1.30;;;;;;;;;;4939021;29;20450;-81
2023/06/04 12:03:45;;;;;;;3.00;1.83;;;;;;;;;;4939462;29;20425;-78
2023/06/04 12:06:12;;;;;;;2.13;1.33;;;;;;;;;;4939358;29;20426;-78
2023/06/04 12:08:51;;;;;;;2.13;1.03;;;;;;;;;;4938899;29;20504;-78
2023/06/04 12:11:36;;;;;;;5.37;1.60;;;;;;;;;;4939538;29;20990;-78
2023/06/04 12:14:05;;;;;;;3.53;1.87;;;;;;;;;;4939471;29;20394;-78
2023/06/04 12:16:31;;;;;;;1.50;1.40;;;;;;;;;;4938637;29;20460;-79
2023/06/04 12:19:07;;;;;;;2.83;1.70;;;;;;;;;;4939112;29;20413;-79
2023/06/04 12:21:33;;;;;;;6.07;1.80;;;;;;;;;;4938898;29;20792;-78
2023/06/04 12:24:15;;;;;;;2.40;1.40;;;;;;;;;;4938960;29;20429;-79
2023/06/04 12:26:43;;;;;;;3.10;2.00;;;;;;;;;;4938539;29;20921;-78
2023/06/04 12:29:13;;;;;;;3.90;1.87;;;;;;;;;;4938644;29;20457;-78
2023/06/04 12:31:43;;;;;;;2.60;1.90;;;;;;;;;;4938577;29;20499;-78
2023/06/04 12:34:09;;;;;;;2.23;1.57;;;;;;;;;;4938647;29;20862;-78
2023/06/04 12:36:35;;;;;;;2.57;1.20;;;;;;;;;;4938395;29;20413;-78
2023/06/04 12:39:03;;;;;;;2.33;1.67;;;;;;;;;;4938706;29;20421;-78
2023/06/04 12:41:29;;;;;;;1.83;1.70;;;;;;;;;;4938438;29;20448;-79
2023/06/04 12:43:55;;;;;;;2.30;1.30;;;;;;;;;;4938523;29;20417;-78
2023/06/04 12:46:22;;;;;;;3.30;1.70;;;;;;;;;;4938297;29;20401;-80
2023/06/04 12:48:48;;;;;;;2.60;1.67;;;;;;;;;;4938338;29;20789;-78
2023/06/04 12:51:14;;;;;;;1.87;1.40;;;;;;;;;;4938394;29;20582;-78
2023/06/04 12:53:41;;;;;;;2.00;1.43;;;;;;;;;;4938308;29;20406;-78
2023/06/04 12:56:08;;;;;;;1.57;1.30;;;;;;;;;;4938374;29;20414;-78
2023/06/04 12:58:34;;;;;;;2.07;1.70;;;;;;;;;;4938158;29;20508;-78
2023/06/04 13:01:00;;;;;;;1.77;1.57;;;;;;;;;;4938466;29;20410;-78
2023/06/04 13:03:26;;;;;;;2.73;1.50;;;;;;;;;;4938002;29;20402;-78
2023/06/04 13:05:53;;;;;;;2.17;1.47;;;;;;;;;;4938268;29;20814;-79
2023/06/04 13:08:20;;;;;;;3.17;1.73;;;;;;;;;;4937386;29;20794;-78
2023/06/04 13:10:46;;;;;;;2.37;1.53;;;;;;;;;;4938083;29;20909;-78
2023/06/04 13:13:14;;;;;;;2.30;1.70;;;;;;;;;;4938482;29;20508;-79
2023/06/04 13:15:40;;;;;;;2.53;2.00;;;;;;;;;;4938109;29;20458;-78
2023/06/04 13:18:06;;;;;;;2.93;1.73;;;;;;;;;;4938176;29;20851;-79
2023/06/04 13:20:32;;;;;;;3.47;1.60;;;;;;;;;;4938003;29;20409;-79
2023/06/04 13:22:58;;;;;;;3.60;1.40;;;;;;;;;;4938050;29;20450;-78
2023/06/04 13:25:24;;;;;;;1.93;1.63;;;;;;;;;;4921809;29;20410;-79
2023/06/04 13:27:50;;;;;;;2.30;1.60;;;;;;;;;;4938123;29;20429;-78
2023/06/04 13:30:16;;;;;;;3.60;1.67;;;;;;;;;;4937961;29;20410;-78
2023/06/04 13:32:42;;;;;;;1.93;1.70;;;;;;;;;;4937206;29;20421;-79
2023/06/04 13:35:08;;;;;;;2.10;1.77;;;;;;;;;;4937421;29;20468;-79
2023/06/04 13:37:35;;;;;;;2.70;1.73;;;;;;;;;;4936036;29;20473;-79
2023/06/04 13:40:01;;;;;;;2.73;1.80;;;;;;;;;;4937741;29;20421;-78
2023/06/04 13:42:27;;;;;;;3.43;1.80;;;;;;;;;;4936587;29;20423;-80
2023/06/04 13:44:53;;;;;;;2.83;1.97;;;;;;;;;;4937216;29;20413;-79
2023/06/04 13:47:19;;;;;;;7.13;2.00;;;;;;;;;;4937164;29;20429;-79
2023/06/04 13:49:45;;;;;;;1.67;1.50;;;;;;;;;;4936924;29;21090;-79
2023/06/04 13:52:11;;;;;;;1.60;1.20;;;;;;;;;;4937257;29;20417;-78
2023/06/04 13:54:37;;;;;;;2.20;2.00;;;;;;;;;;4937211;29;20405;-78
2023/06/04 13:57:03;;;;;;;2.40;1.73;;;;;;;;;;4937227;29;20488;-79
2023/06/04 13:59:30;;;;;;;3.10;2.00;;;;;;;;;;4936926;29;20472;-80
2023/06/04 14:01:57;;;;;;;4.37;1.73;;;;;;;;;;4937067;29;20501;-79
2023/06/04 14:04:23;;;;;;;1.80;1.50;;;;;;;;;;4937245;29;20894;-79
2023/06/04 14:06:49;;;;;;;4.70;2.13;;;;;;;;;;4936802;29;20816;-79
2023/06/04 14:09:15;;;;;;;3.50;1.80;;;;;;;;;;4936973;29;20414;-79
2023/06/04 14:11:41;;;;;;;2.17;1.97;;;;;;;;;;4936566;29;20425;-79
2023/06/04 14:14:07;;;;;;;4.70;1.67;;;;;;;;;;4936622;29;20548;-79
2023/06/04 14:16:34;;;;;;;4.13;2.07;;;;;;;;;;4936241;29;20420;-79
2023/06/04 14:19:00;;;;;;;3.60;1.80;;;;;;;;;;4936657;29;20461;-79
2023/06/04 14:21:27;;;;;;;3.20;1.87;;;;;;;;;;4936622;29;20489;-80
2023/06/04 14:23:54;;;;;;;5.90;2.10;;;;;;;;;;4936793;29;20418;-79
2023/06/04 14:26:20;;;;;;;3.63;1.87;;;;;;;;;;4936532;29;20413;-79
2023/06/04 14:28:46;;;;;;;2.53;2.07;;;;;;;;;;4936161;29;20468;-79
2023/06/04 14:31:12;;;;;;;1.83;1.50;;;;;;;;;;4936369;29;20771;-78
2023/06/04 14:33:38;;;;;;;3.33;2.07;;;;;;;;;;4936127;29;20413;-79
2023/06/04 14:36:04;;;;;;;4.50;2.27;;;;;;;;;;4936402;29;20418;-79
2023/06/04 14:38:31;;;;;;;2.97;1.80;;;;;;;;;;4936238;29;20476;-79
2023/06/04 14:40:57;;;;;;;4.03;2.27;;;;;;;;;;4936340;29;20484;-79